Time;durP1;ratioP1;P1;durP2;ratioP2;P2;SDS_P1;SDS_P2;PMS_P1;PMS_P2;Temp;Humidity;BMP_temperature;BMP_pressure;BME280_temperature;BME280_humidity;BME280_pressure;Samples;Min_cycle;Max_cycle;Signal;HPM_P1;HPM_P2
2022/02/15 00:00:57;;;;;;;4.25;3.08;;;6.90;59.30;;;;;;5027588;28;20260;-68
2022/02/15 00:03:24;;;;;;;5.68;3.50;;;6.90;59.60;;;;;;5028451;28;20261;-69
2022/02/15 00:05:51;;;;;;;8.75;4.05;;;7.00;59.90;;;;;;5027572;28;20352;-68
2022/02/15 00:08:19;;;;;;;7.30;4.22;;;7.00;60.00;;;;;;5028677;28;20305;-68
2022/02/15 00:10:47;;;;;;;5.57;3.53;;;6.90;59.70;;;;;;5027623;28;20245;-67
2022/02/15 00:13:14;;;;;;;5.40;3.95;;;6.90;60.00;;;;;;5030191;28;20348;-67
2022/02/15 00:15:42;;;;;;;8.82;3.83;;;7.00;59.60;;;;;;5026745;28;20236;-68
2022/02/15 00:18:09;;;;;;;5.43;3.15;;;7.00;59.30;;;;;;5010386;28;20720;-68
2022/02/15 00:20:37;;;;;;;6.97;3.45;;;7.10;59.30;;;;;;5011088;28;20245;-68
2022/02/15 00:23:04;;;;;;;6.20;4.00;;;7.10;59.10;;;;;;5030076;28;20253;-68
2022/02/15 00:25:32;;;;;;;4.97;3.40;;;7.10;59.30;;;;;;5029189;28;20223;-72
2022/02/15 00:27:59;;;;;;;5.50;3.65;;;7.20;58.60;;;;;;5010405;28;20195;-68
2022/02/15 00:30:26;;;;;;;10.55;4.55;;;7.20;58.10;;;;;;5010286;28;20188;-68
2022/02/15 00:32:53;;;;;;;7.15;4.30;;;7.30;57.60;;;;;;5029301;28;20187;-68
2022/02/15 00:35:20;;;;;;;7.40;4.72;;;7.20;58.40;;;;;;5033837;28;20252;-68
2022/02/15 00:37:47;;;;;;;9.45;4.55;;;7.20;58.30;;;;;;5015435;28;20184;-67
2022/02/15 00:40:14;;;;;;;9.60;5.45;;;7.30;58.40;;;;;;5014049;28;20352;-68
2022/02/15 00:42:43;;;;;;;8.52;4.18;;;7.20;58.00;;;;;;5029791;28;20195;-67
2022/02/15 00:45:10;;;;;;;7.07;4.05;;;7.20;57.70;;;;;;5033860;28;20285;-67
2022/02/15 00:47:37;;;;;;;7.07;4.18;;;7.20;57.60;;;;;;5018640;28;20192;-68
2022/02/15 00:50:05;;;;;;;6.70;4.18;;;7.20;58.10;;;;;;5013972;28;20242;-68
2022/02/15 00:52:33;;;;;;;5.32;3.40;;;7.20;57.60;;;;;;5026727;28;20218;-68
2022/02/15 00:55:00;;;;;;;7.72;4.22;;;7.20;57.60;;;;;;5033686;28;20195;-68
2022/02/15 00:57:26;;;;;;;5.85;3.75;;;7.20;57.60;;;;;;5020493;28;20184;-67
2022/02/15 00:59:55;;;;;;;5.53;3.58;;;7.30;57.60;;;;;;5022575;28;20186;-68
2022/02/15 01:02:22;;;;;;;5.85;3.70;;;7.30;57.60;;;;;;5018827;28;20191;-69
2022/02/15 01:04:49;;;;;;;5.57;3.67;;;7.30;58.10;;;;;;5032957;28;20206;-68
2022/02/15 01:07:16;;;;;;;6.20;3.70;;;7.20;58.10;;;;;;5033377;28;20294;-68
2022/02/15 01:09:43;;;;;;;6.72;4.15;;;7.20;58.40;;;;;;5031756;28;20295;-67
2022/02/15 01:12:11;;;;;;;8.30;4.70;;;7.10;58.80;;;;;;5033261;28;20214;-69
2022/02/15 01:14:38;;;;;;;11.73;4.57;;;7.20;58.70;;;;;;5026968;28;20234;-67
2022/02/15 01:17:06;;;;;;;7.55;4.78;;;7.20;59.20;;;;;;5013347;28;20283;-68
2022/02/15 01:19:33;;;;;;;7.50;4.13;;;7.20;59.20;;;;;;5016778;28;20180;-68
2022/02/15 01:22:00;;;;;;;6.30;4.20;;;7.20;58.80;;;;;;5033550;28;20222;-68
2022/02/15 01:24:27;;;;;;;6.07;4.10;;;7.20;59.30;;;;;;5029481;28;20218;-69
2022/02/15 01:26:54;;;;;;;7.30;4.88;;;7.20;59.30;;;;;;5012950;28;20265;-68
2022/02/15 01:29:21;;;;;;;7.03;4.45;;;7.20;59.10;;;;;;5032934;28;20227;-68
2022/02/15 01:31:48;;;;;;;6.93;4.47;;;7.20;59.10;;;;;;5032783;28;20249;-68
2022/02/15 01:34:16;;;;;;;7.20;4.97;;;7.30;59.40;;;;;;5012757;28;20192;-68
2022/02/15 01:36:44;;;;;;;7.50;5.63;;;7.30;59.80;;;;;;5013215;28;20254;-68
2022/02/15 01:39:11;;;;;;;8.32;5.47;;;7.30;59.90;;;;;;5030130;28;20252;-68
2022/02/15 01:41:38;;;;;;;7.93;5.10;;;7.40;59.80;;;;;;5032818;28;20191;-68
2022/02/15 01:44:06;;;;;;;8.18;5.28;;;7.50;59.80;;;;;;5015634;28;20605;-68
2022/02/15 01:46:33;;;;;;;9.25;5.97;;;7.60;59.50;;;;;;5012956;28;20223;-68
2022/02/15 01:48:59;;;;;;;6.47;5.00;;;7.60;59.50;;;;;;5012489;28;20227;-68
2022/02/15 01:51:28;;;;;;;10.13;6.00;;;7.60;59.60;;;;;;5012784;28;20188;-68
2022/02/15 01:53:55;;;;;;;8.77;5.15;;;7.60;59.70;;;;;;5012512;28;20192;-68
2022/02/15 01:56:22;;;;;;;9.48;6.43;;;7.60;59.50;;;;;;5012782;28;20254;-68
2022/02/15 01:58:49;;;;;;;8.75;5.97;;;7.60;60.20;;;;;;5024261;28;20237;-68
2022/02/15 02:01:16;;;;;;;7.20;5.13;;;7.60;60.70;;;;;;5032340;28;20261;-68
2022/02/15 02:03:43;;;;;;;7.90;6.05;;;7.60;60.80;;;;;;5021065;28;20525;-68
2022/02/15 02:06:09;;;;;;;7.05;5.00;;;7.70;60.70;;;;;;5012190;28;20227;-67
2022/02/15 02:08:37;;;;;;;8.80;5.90;;;7.70;61.00;;;;;;5020949;28;20241;-68
2022/02/15 02:11:05;;;;;;;8.48;6.10;;;7.60;62.60;;;;;;5032244;28;20500;-67
2022/02/15 02:13:32;;;;;;;6.72;5.30;;;7.60;62.40;;;;;;5023507;28;20261;-68
2022/02/15 02:15:59;;;;;;;8.30;5.03;;;7.70;62.90;;;;;;5012176;28;20234;-69
2022/02/15 02:18:26;;;;;;;8.32;4.95;;;7.70;63.20;;;;;;5030904;28;20245;-68
2022/02/15 02:20:53;;;;;;;9.48;5.55;;;7.70;63.20;;;;;;5016148;28;20238;-68
2022/02/15 02:23:23;;;;;;;8.25;6.10;;;7.70;63.30;;;;;;5012338;28;20239;-67
2022/02/15 02:25:50;;;;;;;6.70;5.78;;;7.70;63.50;;;;;;5025921;28;20520;-68
2022/02/15 02:28:19;;;;;;;8.40;5.60;;;7.70;64.10;;;;;;5032230;28;20191;-68
2022/02/15 02:30:46;;;;;;;7.07;5.63;;;7.70;64.00;;;;;;5018426;28;20734;-68
2022/02/15 02:33:13;;;;;;;6.65;5.22;;;7.70;64.50;;;;;;5022377;28;20229;-68
2022/02/15 02:35:40;;;;;;;8.95;5.82;;;7.70;64.70;;;;;;5027879;28;20198;-68
2022/02/15 02:38:07;;;;;;;7.45;6.00;;;7.70;64.90;;;;;;5032195;28;20199;-67
2022/02/15 02:40:35;;;;;;;6.32;4.95;;;7.70;65.60;;;;;;5023523;28;20211;-69
2022/02/15 02:43:02;;;;;;;7.63;5.60;;;7.70;66.50;;;;;;5012934;28;20187;-68
2022/02/15 02:45:29;;;;;;;8.40;6.05;;;7.70;67.60;;;;;;5019414;28;20183;-68
2022/02/15 02:47:56;;;;;;;8.60;5.28;;;7.60;68.50;;;;;;5032966;28;20241;-68
2022/02/15 02:50:27;;;;;;;7.22;4.43;;;7.60;68.80;;;;;;5026557;28;20187;-68
2022/02/15 02:52:55;;;;;;;7.50;5.38;;;7.60;69.20;;;;;;5013125;28;20191;-67
2022/02/15 02:55:22;;;;;;;7.25;5.38;;;7.50;69.50;;;;;;5016815;28;20206;-68
2022/02/15 02:57:50;;;;;;;9.18;4.82;;;7.50;69.80;;;;;;5032760;28;20191;-68
2022/02/15 03:00:19;;;;;;;9.13;6.10;;;7.50;69.90;;;;;;5028680;28;20730;-67
2022/02/15 03:02:45;;;;;;;7.43;4.82;;;7.50;70.20;;;;;;5013000;28;20188;-67
2022/02/15 03:05:13;;;;;;;8.38;5.50;;;7.50;70.30;;;;;;5014676;28;20191;-67
2022/02/15 03:07:39;;;;;;;6.65;4.90;;;7.40;70.20;;;;;;5032522;28;20219;-68
2022/02/15 03:10:07;;;;;;;8.15;5.38;;;7.40;71.10;;;;;;5030798;28;20796;-68
2022/02/15 03:12:34;;;;;;;7.00;4.90;;;7.40;71.30;;;;;;5012363;28;20216;-68
2022/02/15 03:15:03;;;;;;;6.30;5.15;;;7.30;71.30;;;;;;5012574;28;20535;-68
2022/02/15 03:17:30;;;;;;;6.72;4.75;;;7.20;72.20;;;;;;5012444;28;20196;-68
2022/02/15 03:19:57;;;;;;;6.80;4.95;;;7.20;71.80;;;;;;5012799;28;20196;-67
2022/02/15 03:22:25;;;;;;;7.45;4.40;;;7.20;71.90;;;;;;5030772;28;20195;-68
2022/02/15 03:24:52;;;;;;;6.03;4.15;;;7.20;71.40;;;;;;5032367;28;20607;-68
2022/02/15 03:27:19;;;;;;;9.30;4.70;;;7.20;71.30;;;;;;5014057;28;20215;-68
2022/02/15 03:29:46;;;;;;;14.00;8.73;;;7.20;72.00;;;;;;5012107;28;20191;-70
2022/02/15 03:32:15;;;;;;;8.77;6.03;;;7.20;72.20;;;;;;5031705;28;20676;-68
2022/02/15 03:34:42;;;;;;;6.20;5.03;;;7.10;71.90;;;;;;5032128;28;20197;-68
2022/02/15 03:37:09;;;;;;;5.30;4.15;;;7.10;72.20;;;;;;5012134;28;20184;-67
2022/02/15 03:39:36;;;;;;;7.55;5.15;;;7.10;72.60;;;;;;5012361;28;20227;-68
2022/02/15 03:44:48;;;;;;;8.43;5.05;;;7.00;73.40;;;;;;5032301;28;20201;-68
2022/02/15 03:47:17;;;;;;;6.70;4.53;;;7.00;73.70;;;;;;5012676;28;20254;-69
2022/02/15 03:49:44;;;;;;;7.55;5.05;;;6.90;74.00;;;;;;5012413;28;20636;-68
2022/02/15 03:52:11;;;;;;;6.70;5.18;;;6.90;74.40;;;;;;5029144;28;20240;-67
2022/02/15 03:54:38;;;;;;;7.40;5.75;;;6.90;74.20;;;;;;5032336;28;20534;-67
2022/02/15 03:57:06;;;;;;;5.82;5.18;;;6.90;74.10;;;;;;5015118;28;20238;-69
2022/02/15 03:59:34;;;;;;;7.20;5.30;;;6.90;74.40;;;;;;5012621;28;20258;-68
2022/02/15 04:02:01;;;;;;;10.02;5.78;;;6.80;74.50;;;;;;5026788;28;20195;-69
2022/02/15 04:04:29;;;;;;;7.28;5.63;;;6.90;74.60;;;;;;5032570;28;20223;-68
2022/02/15 04:06:58;;;;;;;6.25;4.50;;;6.90;74.20;;;;;;5017375;28;20265;-68
2022/02/15 04:09:25;;;;;;;7.38;5.78;;;6.90;74.80;;;;;;5015714;28;20258;-68
2022/02/15 04:11:52;;;;;;;6.80;5.55;;;6.80;74.90;;;;;;5028166;28;20183;-67
2022/02/15 04:14:19;;;;;;;8.60;5.47;;;6.80;74.30;;;;;;5027168;28;20218;-68
2022/02/15 04:16:46;;;;;;;6.22;4.35;;;6.80;74.30;;;;;;5024723;28;20635;-68
2022/02/15 04:19:12;;;;;;;6.15;4.60;;;6.80;74.50;;;;;;5016217;28;20242;-68
2022/02/15 04:21:41;;;;;;;6.97;4.47;;;6.80;74.30;;;;;;5024096;28;20210;-68
2022/02/15 04:24:08;;;;;;;6.15;4.75;;;6.80;74.40;;;;;;5036157;28;20190;-68
2022/02/15 04:26:37;;;;;;;6.63;4.93;;;6.80;74.50;;;;;;5027921;28;20273;-68
2022/02/15 04:29:03;;;;;;;7.75;5.00;;;6.80;74.70;;;;;;5016253;28;20195;-68
2022/02/15 04:31:30;;;;;;;8.40;5.10;;;6.80;74.90;;;;;;5021283;28;20646;-68
2022/02/15 04:33:57;;;;;;;6.78;4.68;;;6.80;75.40;;;;;;5035921;28;20249;-68
2022/02/15 04:36:24;;;;;;;7.35;5.00;;;6.80;75.10;;;;;;5030286;28;20246;-68
2022/02/15 04:38:53;;;;;;;8.35;5.53;;;6.70;75.00;;;;;;5015982;28;20230;-68
2022/02/15 04:41:20;;;;;;;11.75;6.82;;;6.70;74.80;;;;;;5018544;28;20183;-68
2022/02/15 04:43:46;;;;;;;11.25;7.70;;;6.70;75.00;;;;;;5035468;28;20624;-68
2022/02/15 04:46:13;;;;;;;12.52;7.25;;;6.60;75.70;;;;;;5032134;28;20289;-68
2022/02/15 04:48:40;;;;;;;8.57;6.50;;;6.50;76.20;;;;;;5015789;28;20192;-68
2022/02/15 04:51:07;;;;;;;8.95;6.72;;;6.50;76.40;;;;;;5014755;28;20195;-71
2022/02/15 04:53:34;;;;;;;9.60;6.88;;;6.40;76.40;;;;;;5027700;28;20307;-69
2022/02/15 04:56:04;;;;;;;11.25;7.15;;;6.40;76.90;;;;;;5015404;28;20199;-68
2022/02/15 04:58:31;;;;;;;10.02;6.63;;;6.30;77.30;;;;;;5033671;28;20241;-68
2022/02/15 05:00:59;;;;;;;8.38;6.53;;;6.30;77.60;;;;;;5014610;28;20183;-68
2022/02/15 05:03:27;;;;;;;9.10;6.80;;;6.30;78.10;;;;;;5026002;28;20246;-68
2022/02/15 05:05:54;;;;;;;8.30;6.07;;;6.40;78.20;;;;;;5014511;28;20191;-67
2022/02/15 05:08:21;;;;;;;13.02;7.22;;;6.30;78.60;;;;;;5015430;28;20199;-68
2022/02/15 05:10:47;;;;;;;9.13;6.80;;;6.20;79.20;;;;;;5029563;28;20187;-68
2022/02/15 05:13:16;;;;;;;8.70;6.90;;;6.20;79.20;;;;;;5029109;28;20262;-67
2022/02/15 05:15:43;;;;;;;9.45;5.70;;;6.20;79.20;;;;;;5015190;28;20262;-68
2022/02/15 05:18:10;;;;;;;8.85;5.78;;;6.20;78.80;;;;;;5017652;28;20183;-68
2022/02/15 05:20:37;;;;;;;7.10;5.28;;;6.20;78.80;;;;;;5034211;28;20333;-67
2022/02/15 05:23:04;;;;;;;7.50;5.70;;;6.20;78.70;;;;;;5031494;28;20241;-68
2022/02/15 05:25:31;;;;;;;7.80;5.63;;;6.20;79.00;;;;;;5015023;28;20195;-68
2022/02/15 05:28:03;;;;;;;8.15;5.18;;;6.20;79.00;;;;;;5031070;28;20591;-69
2022/02/15 05:30:31;;;;;;;6.72;4.97;;;6.30;79.30;;;;;;5034689;28;20502;-68
2022/02/15 05:33:06;;;;;;;7.25;5.13;;;6.30;79.50;;;;;;5031402;28;20183;-68
2022/02/15 05:35:33;;;;;;;8.68;5.68;;;6.30;79.40;;;;;;5034085;28;20277;-69
2022/02/15 05:38:00;;;;;;;7.05;4.78;;;6.30;79.20;;;;;;5015214;28;20191;-69
2022/02/15 05:40:26;;;;;;;5.78;4.25;;;6.40;79.50;;;;;;5014716;28;20200;-68
2022/02/15 05:42:53;;;;;;;5.00;3.40;;;6.30;79.70;;;;;;5031002;28;20192;-68
2022/02/15 05:45:20;;;;;;;7.47;3.30;;;6.40;79.50;;;;;;5034565;28;20222;-68
2022/02/15 05:47:49;;;;;;;8.35;4.32;;;6.40;79.30;;;;;;5017792;28;20549;-68
2022/02/15 05:53:00;;;;;;;6.22;4.25;;;6.20;79.00;;;;;;5014988;28;20195;-68
2022/02/15 05:55:27;;;;;;;4.82;3.47;;;6.20;79.60;;;;;;5014258;28;20238;-68
2022/02/15 05:57:54;;;;;;;6.05;3.80;;;6.20;79.50;;;;;;5031572;28;20616;-67
2022/02/15 06:00:21;;;;;;;8.90;3.95;;;6.10;80.00;;;;;;5034242;28;20261;-68
2022/02/15 06:02:49;;;;;;;7.85;3.90;;;6.10;80.50;;;;;;5016243;28;20187;-68
2022/02/15 06:05:16;;;;;;;5.85;3.85;;;6.10;80.50;;;;;;5014174;28;20257;-68
2022/02/15 06:07:43;;;;;;;5.88;4.50;;;6.00;80.50;;;;;;5028668;28;20261;-68
2022/02/15 06:10:10;;;;;;;6.28;4.25;;;6.00;81.70;;;;;;5033954;28;20191;-67
2022/02/15 06:12:37;;;;;;;6.80;4.30;;;6.10;81.50;;;;;;5019137;28;20219;-68
2022/02/15 06:15:05;;;;;;;6.50;4.20;;;6.00;81.60;;;;;;5013923;28;20199;-67
2022/02/15 06:17:32;;;;;;;7.80;5.32;;;5.90;81.70;;;;;;5025624;28;20277;-67
2022/02/15 06:20:01;;;;;;;6.15;4.38;;;5.90;83.00;;;;;;5031236;28;20238;-67
2022/02/15 06:22:28;;;;;;;6.38;3.83;;;5.80;83.50;;;;;;5020806;28;20248;-68
2022/02/15 06:24:55;;;;;;;5.90;4.40;;;5.80;83.70;;;;;;5014213;28;20287;-67
2022/02/15 06:27:22;;;;;;;10.77;6.28;;;5.90;83.50;;;;;;5023264;28;20219;-67
2022/02/15 06:29:49;;;;;;;7.65;5.53;;;5.90;83.30;;;;;;5033637;28;20293;-68
2022/02/15 06:32:16;;;;;;;7.50;4.50;;;5.80;82.90;;;;;;5023001;28;20307;-67
2022/02/15 06:34:43;;;;;;;4.70;3.15;;;5.80;83.30;;;;;;5020177;28;20245;-68
2022/02/15 06:37:15;;;;;;;8.65;5.25;;;5.70;84.50;;;;;;5030514;28;20187;-68
2022/02/15 06:39:42;;;;;;;5.78;4.00;;;5.70;84.80;;;;;;5031484;28;20203;-68
2022/02/15 06:42:14;;;;;;;12.32;8.95;;;5.60;85.20;;;;;;5030527;28;20647;-68
2022/02/15 06:44:40;;;;;;;9.18;5.20;;;5.60;84.90;;;;;;5029845;28;20606;-68
2022/02/15 06:47:08;;;;;;;5.45;4.20;;;5.60;85.60;;;;;;5031411;28;20223;-68
2022/02/15 06:49:34;;;;;;;6.40;4.50;;;5.50;85.80;;;;;;5030195;28;20222;-68
2022/02/15 06:52:01;;;;;;;7.22;4.70;;;5.50;86.40;;;;;;5031474;28;20241;-68
2022/02/15 06:54:30;;;;;;;4.63;3.15;;;5.60;86.30;;;;;;5029948;28;20191;-68
2022/02/15 06:56:57;;;;;;;6.03;3.63;;;5.60;85.70;;;;;;5028457;28;20261;-68
2022/02/15 06:59:39;;;;;;;5.72;3.83;;;5.70;85.50;;;;;;5031626;28;20195;-68
2022/02/15 07:02:07;;;;;;;6.00;2.72;;;5.70;85.70;;;;;;5028064;28;20690;-68
2022/02/15 07:04:34;;;;;;;11.55;2.90;;;5.80;85.10;;;;;;5030295;28;20187;-75
2022/02/15 07:07:01;;;;;;;3.70;2.55;;;5.80;85.30;;;;;;5031348;28;20681;-68
2022/02/15 07:09:28;;;;;;;3.92;2.20;;;5.80;85.20;;;;;;5031066;28;20222;-68
2022/02/15 07:11:56;;;;;;;4.70;2.75;;;5.80;85.10;;;;;;5027195;28;20191;-68
2022/02/15 07:14:23;;;;;;;3.53;2.20;;;5.80;84.90;;;;;;5029464;28;20238;-68
2022/02/15 07:16:50;;;;;;;5.85;2.80;;;5.80;84.40;;;;;;5023800;28;20191;-69
2022/02/15 07:19:17;;;;;;;5.35;2.30;;;5.90;84.50;;;;;;5030509;28;20199;-68
2022/02/15 07:21:47;;;;;;;4.90;1.92;;;5.80;85.00;;;;;;5029774;28;20626;-68
2022/02/15 07:24:13;;;;;;;3.85;1.70;;;5.80;85.30;;;;;;5029702;28;20557;-68
2022/02/15 07:26:40;;;;;;;3.17;2.17;;;5.90;85.40;;;;;;5031035;28;20233;-68
2022/02/15 07:29:09;;;;;;;4.97;2.63;;;5.90;85.60;;;;;;5031684;28;20664;-68
2022/02/15 07:31:35;;;;;;;5.25;3.30;;;6.00;85.60;;;;;;5031409;28;20195;-70
2022/02/15 07:34:02;;;;;;;4.93;4.00;;;6.00;86.00;;;;;;5031493;28;20284;-67
2022/02/15 07:36:29;;;;;;;4.88;3.38;;;6.10;86.30;;;;;;5030040;28;20190;-74
2022/02/15 07:38:56;;;;;;;6.38;4.00;;;6.10;86.60;;;;;;5030312;28;20187;-69
2022/02/15 07:41:23;;;;;;;5.30;3.75;;;6.10;86.70;;;;;;5030636;28;20191;-68
2022/02/15 07:43:50;;;;;;;5.32;3.40;;;6.30;85.80;;;;;;5029157;28;20642;-68
2022/02/15 07:46:19;;;;;;;4.72;3.03;;;6.20;85.70;;;;;;5022350;28;20246;-68
2022/02/15 07:48:46;;;;;;;4.20;2.78;;;6.30;86.30;;;;;;5027827;28;20292;-68
2022/02/15 07:51:13;;;;;;;4.50;3.20;;;6.30;86.40;;;;;;5028411;28;20715;-68
2022/02/15 07:53:40;;;;;;;5.35;2.65;;;6.30;86.20;;;;;;5024626;28;20187;-68
2022/02/15 07:56:12;;;;;;;4.72;2.40;;;6.30;86.70;;;;;;5021443;28;20712;-75
2022/02/15 07:58:39;;;;;;;4.90;2.30;;;6.30;86.80;;;;;;5024289;28;20308;-68
2022/02/15 08:01:06;;;;;;;3.53;2.00;;;6.30;86.90;;;;;;5026774;28;20626;-68
2022/02/15 08:03:35;;;;;;;5.93;2.78;;;6.30;87.80;;;;;;5024560;28;20191;-70
2022/02/15 08:06:02;;;;;;;3.92;2.30;;;6.40;88.10;;;;;;5025112;28;20219;-68
2022/02/15 08:08:29;;;;;;;5.35;2.85;;;6.40;87.30;;;;;;5030414;28;20234;-68
2022/02/15 08:10:57;;;;;;;5.13;2.88;;;6.40;87.50;;;;;;5021961;28;20196;-67
2022/02/15 08:13:33;;;;;;;5.78;2.92;;;6.50;87.90;;;;;;5029744;28;20725;-68
2022/02/15 08:16:00;;;;;;;3.22;2.13;;;6.40;87.10;;;;;;5028610;28;20281;-68
2022/02/15 08:18:27;;;;;;;3.72;3.00;;;6.40;87.10;;;;;;5022567;28;20233;-69
2022/02/15 08:20:56;;;;;;;4.03;2.20;;;6.30;87.30;;;;;;5029054;28;20294;-68
2022/02/15 08:23:23;;;;;;;3.60;2.65;;;6.40;87.70;;;;;;5030542;28;20203;-68
2022/02/15 08:25:52;;;;;;;6.47;3.63;;;6.40;87.60;;;;;;5025212;28;20187;-68
2022/02/15 08:28:21;;;;;;;4.82;3.38;;;6.30;87.50;;;;;;5029853;28;20215;-68
2022/02/15 08:30:48;;;;;;;5.22;2.70;;;6.40;88.10;;;;;;5025430;28;20191;-68
2022/02/15 08:33:15;;;;;;;4.35;2.80;;;6.40;88.00;;;;;;5030123;28;20295;-68
2022/02/15 08:35:42;;;;;;;11.07;3.70;;;6.50;87.10;;;;;;5024708;28;20256;-68
2022/02/15 08:38:10;;;;;;;4.28;2.97;;;6.50;87.40;;;;;;5029311;28;20583;-68
2022/02/15 08:40:37;;;;;;;6.85;3.72;;;6.40;87.50;;;;;;5023658;28;20649;-68
2022/02/15 08:43:04;;;;;;;4.70;3.58;;;6.50;88.00;;;;;;5022793;28;20618;-69
2022/02/15 08:45:31;;;;;;;4.35;3.53;;;6.50;87.50;;;;;;5028227;28;20191;-68
2022/02/15 08:47:58;;;;;;;4.93;3.60;;;6.50;87.90;;;;;;5028462;28;20304;-68
2022/02/15 08:50:25;;;;;;;5.25;2.60;;;6.50;87.90;;;;;;5029864;28;20574;-68
2022/02/15 08:52:52;;;;;;;5.40;3.72;;;6.50;87.20;;;;;;5028780;28;20249;-67
2022/02/15 08:55:21;;;;;;;5.68;3.83;;;6.50;87.10;;;;;;5027121;28;20183;-67
2022/02/15 08:57:48;;;;;;;9.57;5.63;;;6.50;88.10;;;;;;5032175;28;20233;-68
2022/02/15 09:00:15;;;;;;;12.32;6.95;;;6.50;88.70;;;;;;5030713;28;20234;-68
2022/02/15 09:02:42;;;;;;;7.43;5.05;;;6.50;89.10;;;;;;5029769;28;20245;-68
2022/02/15 09:05:10;;;;;;;7.97;4.75;;;6.50;88.90;;;;;;5030331;28;20187;-69
2022/02/15 09:07:37;;;;;;;9.10;4.28;;;6.50;89.30;;;;;;5033251;28;20221;-68
2022/02/15 09:10:05;;;;;;;8.55;3.60;;;6.50;89.40;;;;;;5033219;28;20191;-71
2022/02/15 09:12:34;;;;;;;6.10;4.07;;;6.50;88.80;;;;;;5031816;28;20285;-69
2022/02/15 09:15:01;;;;;;;12.48;5.28;;;6.40;88.40;;;;;;5033512;28;20229;-68
2022/02/15 09:17:28;;;;;;;8.60;5.30;;;6.40;89.50;;;;;;5032635;28;20653;-68
2022/02/15 09:19:55;;;;;;;8.18;5.22;;;6.50;90.10;;;;;;5031115;28;20199;-68
2022/02/15 09:22:22;;;;;;;6.30;4.40;;;6.60;90.10;;;;;;5033745;28;20501;-69
2022/02/15 09:24:51;;;;;;;9.55;3.97;;;6.70;90.10;;;;;;5032159;28;20187;-69
2022/02/15 09:27:17;;;;;;;8.30;5.03;;;6.70;90.20;;;;;;5033504;28;20649;-68
2022/02/15 09:29:46;;;;;;;6.57;4.13;;;6.80;89.50;;;;;;5032342;28;20249;-68
2022/02/15 09:32:13;;;;;;;6.60;4.90;;;6.70;88.50;;;;;;5033291;28;20218;-68
2022/02/15 09:34:39;;;;;;;7.10;4.68;;;6.60;89.20;;;;;;5030173;28;20179;-69
2022/02/15 09:37:06;;;;;;;6.95;4.22;;;6.60;90.00;;;;;;5033473;28;20261;-69
2022/02/15 09:39:33;;;;;;;5.20;3.10;;;6.70;88.80;;;;;;5032390;28;20191;-67
2022/02/15 09:42:00;;;;;;;5.68;4.05;;;6.70;89.00;;;;;;5032169;28;20200;-67
2022/02/15 09:44:27;;;;;;;6.47;2.92;;;6.70;89.90;;;;;;5031798;28;20183;-68
2022/02/15 09:47:00;;;;;;;8.27;2.70;;;6.80;88.90;;;;;;5027393;28;20277;-74
2022/02/15 09:52:15;;;;;;;5.32;3.03;;;6.70;88.70;;;;;;5028854;28;20202;-68
2022/02/15 09:54:42;;;;;;;5.05;2.80;;;6.70;90.20;;;;;;5027462;28;20179;-68
2022/02/15 09:57:09;;;;;;;5.65;3.08;;;6.60;89.00;;;;;;5032647;28;20249;-72
2022/02/15 09:59:36;;;;;;;5.20;4.05;;;6.50;89.90;;;;;;5027580;28;20261;-69
2022/02/15 10:02:09;;;;;;;4.80;3.38;;;6.40;90.20;;;;;;5027597;28;20199;-68
2022/02/15 10:04:36;;;;;;;4.60;3.35;;;6.30;90.50;;;;;;5032647;28;20284;-68
2022/02/15 10:07:05;;;;;;;6.00;3.20;;;6.30;91.20;;;;;;5026862;28;20230;-67
2022/02/15 10:09:32;;;;;;;3.95;3.15;;;6.40;91.30;;;;;;5032262;28;20222;-69
2022/02/15 10:12:06;;;;;;;4.35;2.22;;;6.50;91.00;;;;;;5032339;28;20195;-70
2022/02/15 10:14:36;;;;;;;4.40;2.70;;;6.60;90.80;;;;;;5029682;28;20218;-69
2022/02/15 10:17:08;;;;;;;4.50;3.10;;;6.60;91.10;;;;;;5032390;28;20191;-68
2022/02/15 10:19:35;;;;;;;5.10;2.75;;;6.60;91.10;;;;;;5031429;28;20243;-69
2022/02/15 10:22:04;;;;;;;4.80;3.00;;;6.70;91.40;;;;;;5025827;28;20199;-68
2022/02/15 10:24:33;;;;;;;7.22;3.63;;;6.80;91.30;;;;;;5031223;28;20712;-69
2022/02/15 10:27:02;;;;;;;4.20;2.47;;;6.90;91.30;;;;;;5026553;28;20191;-69
2022/02/15 10:29:32;;;;;;;6.65;2.95;;;6.90;90.90;;;;;;5027207;28;20294;-69
2022/02/15 10:32:01;;;;;;;5.70;3.38;;;7.00;90.80;;;;;;5031688;28;20199;-76
2022/02/15 10:34:30;;;;;;;4.68;2.35;;;7.10;90.30;;;;;;5032195;28;20271;-69
2022/02/15 10:37:00;;;;;;;1.88;0.98;;;7.20;90.20;;;;;;5031755;28;20195;-68
2022/02/15 10:39:38;;;;;;;2.25;1.15;;;7.30;89.20;;;;;;5030148;28;20187;-68
2022/02/15 10:42:10;;;;;;;3.35;1.27;;;7.30;85.90;;;;;;5030742;28;20187;-69
2022/02/15 10:44:52;;;;;;;5.07;1.00;;;7.40;86.10;;;;;;5024338;28;20529;-70
2022/02/15 10:47:19;;;;;;;2.10;1.00;;;7.50;85.70;;;;;;5032177;28;20195;-69
2022/02/15 10:49:47;;;;;;;3.25;1.17;;;7.40;84.10;;;;;;5022268;28;20202;-69
2022/02/15 10:52:15;;;;;;;2.20;1.10;;;7.40;83.80;;;;;;5032153;28;20306;-68
2022/02/15 10:54:42;;;;;;;3.30;1.70;;;7.40;83.10;;;;;;5031159;28;20193;-69
2022/02/15 10:57:11;;;;;;;1.92;1.15;;;7.40;83.40;;;;;;5032121;28;20187;-68
2022/02/15 10:59:42;;;;;;;2.65;1.50;;;7.50;84.10;;;;;;5027336;28;20562;-68
2022/02/15 11:02:14;;;;;;;2.65;1.30;;;7.50;84.50;;;;;;5032132;28;20191;-68
2022/02/15 11:04:42;;;;;;;2.25;1.25;;;7.50;84.60;;;;;;5030480;28;20635;-68
2022/02/15 11:07:11;;;;;;;2.58;1.70;;;7.70;84.30;;;;;;5031755;28;20187;-68
2022/02/15 11:09:42;;;;;;;1.80;1.05;;;7.80;83.60;;;;;;5030455;28;20678;-68
2022/02/15 11:12:19;;;;;;;2.30;1.40;;;7.80;82.80;;;;;;5029781;28;20525;-76
2022/02/15 11:14:51;;;;;;;3.38;1.60;;;7.90;82.70;;;;;;5031992;28;20290;-68
2022/02/15 11:17:18;;;;;;;3.47;1.75;;;8.00;82.90;;;;;;5021237;28;20497;-68
2022/02/15 11:19:45;;;;;;;3.42;1.50;;;8.10;82.90;;;;;;5029133;28;20187;-68
2022/02/15 11:22:21;;;;;;;2.28;1.10;;;8.20;81.80;;;;;;5024975;28;20188;-68
2022/02/15 11:25:16;;;;;;;2.30;1.35;;;8.20;81.70;;;;;;5031044;28;20252;-68
2022/02/15 11:30:45;;;;;;;2.67;1.38;;;8.40;81.00;;;;;;5029435;28;20194;-67
2022/02/15 11:33:17;;;;;;;2.50;1.40;;;8.40;80.40;;;;;;5031019;28;20202;-68
2022/02/15 11:35:51;;;;;;;2.05;1.35;;;8.60;80.70;;;;;;5030078;28;20281;-68
2022/02/15 11:38:20;;;;;;;2.95;1.70;;;8.70;79.70;;;;;;5022052;28;20192;-69
2022/02/15 11:41:02;;;;;;;3.33;2.13;;;8.80;79.00;;;;;;5030873;28;20298;-68
2022/02/15 11:43:29;;;;;;;3.35;1.73;;;8.80;77.30;;;;;;5025888;28;20187;-69
2022/02/15 11:45:57;;;;;;;2.47;1.80;;;8.80;78.00;;;;;;5031037;28;20202;-68
2022/02/15 11:48:35;;;;;;;3.00;1.92;;;8.90;78.10;;;;;;5029406;28;20225;-68
2022/02/15 11:51:03;;;;;;;4.07;2.35;;;8.90;78.10;;;;;;5027393;28;20248;-68
2022/02/15 11:53:34;;;;;;;2.50;1.85;;;9.10;77.80;;;;;;5030281;28;20190;-70
2022/02/15 11:56:01;;;;;;;4.18;2.60;;;9.10;77.30;;;;;;5030112;28;20187;-70
2022/02/15 11:58:29;;;;;;;2.95;1.40;;;9.10;76.50;;;;;;5025812;28;20553;-68
2022/02/15 12:00:56;;;;;;;3.97;1.65;;;9.10;76.20;;;;;;5027855;28;20205;-68
2022/02/15 12:03:23;;;;;;;4.30;1.80;;;9.00;76.50;;;;;;5030822;28;20206;-68
2022/02/15 12:05:49;;;;;;;3.22;1.70;;;9.00;76.30;;;;;;5029963;28;20277;-72
2022/02/15 12:08:30;;;;;;;3.17;1.70;;;8.90;76.20;;;;;;5030874;28;20230;-68
2022/02/15 12:11:04;;;;;;;6.93;4.10;;;8.90;77.30;;;;;;5029915;28;20198;-68
2022/02/15 12:13:34;;;;;;;2.90;2.10;;;8.90;77.20;;;;;;5026703;28;20573;-68
2022/02/15 12:16:01;;;;;;;3.85;2.28;;;8.90;76.40;;;;;;5022210;28;20198;-68
2022/02/15 12:18:29;;;;;;;3.08;1.75;;;8.80;77.10;;;;;;5026068;28;20183;-70
2022/02/15 12:20:57;;;;;;;3.10;2.22;;;8.80;77.20;;;;;;5026493;28;20187;-68
2022/02/15 12:23:25;;;;;;;2.30;1.40;;;8.80;77.30;;;;;;5030817;28;20452;-68
2022/02/15 12:25:52;;;;;;;4.07;2.50;;;8.80;76.80;;;;;;5029726;28;20194;-68
2022/02/15 12:28:24;;;;;;;3.50;2.58;;;8.80;76.00;;;;;;5029222;28;20287;-70
2022/02/15 12:30:51;;;;;;;5.53;4.10;;;8.70;75.50;;;;;;5032577;28;20286;-68
2022/02/15 12:33:19;;;;;;;4.00;2.95;;;8.70;75.80;;;;;;5034645;28;20210;-68
2022/02/15 12:35:54;;;;;;;2.85;1.63;;;8.60;76.60;;;;;;5033579;28;20206;-69
2022/02/15 12:38:21;;;;;;;3.35;1.90;;;8.60;76.30;;;;;;5031563;28;20198;-68
2022/02/15 12:40:49;;;;;;;4.07;1.50;;;8.60;75.20;;;;;;5033721;28;20219;-68
2022/02/15 12:43:15;;;;;;;3.38;1.70;;;8.60;75.20;;;;;;5034658;28;20537;-72
2022/02/15 12:45:45;;;;;;;4.25;1.60;;;8.60;75.20;;;;;;5030509;28;20608;-69
2022/02/15 12:48:12;;;;;;;3.53;2.13;;;8.60;75.70;;;;;;5034064;28;20205;-69
2022/02/15 12:50:39;;;;;;;3.50;2.05;;;8.70;75.20;;;;;;5030944;28;20217;-69
2022/02/15 12:53:06;;;;;;;2.45;1.83;;;9.00;76.20;;;;;;5027786;28;20277;-70
2022/02/15 12:55:33;;;;;;;3.13;2.45;;;9.40;75.00;;;;;;5033739;28;20273;-69
2022/02/15 12:58:00;;;;;;;2.70;2.05;;;9.70;74.70;;;;;;5031969;28;20310;-69
2022/02/15 13:00:28;;;;;;;3.45;1.90;;;9.90;72.40;;;;;;5029170;28;20230;-72
2022/02/15 13:03:01;;;;;;;2.63;2.00;;;10.00;69.80;;;;;;5025696;28;20205;-68
2022/02/15 13:05:32;;;;;;;2.92;1.85;;;10.10;69.70;;;;;;5028609;28;20207;-68
2022/02/15 13:07:59;;;;;;;4.43;2.40;;;10.40;70.10;;;;;;5031861;28;20282;-71
2022/02/15 13:10:28;;;;;;;3.85;2.70;;;10.70;67.70;;;;;;5031640;28;20229;-68